sensor_id;sensor_type;location;lat;lon;timestamp;pressure;altitude;pressure_sealevel;temperature;humidity
32320;BME280;19080;51.750;5.888;2022-11-23T00:01:23;99378.06;;;9.43;100.00
32320;BME280;19080;51.750;5.888;2022-11-23T00:03:54;99371.88;;;9.43;100.00
32320;BME280;19080;51.750;5.888;2022-11-23T00:06:21;99282.09;;;8.90;100.00
32320;BME280;19080;51.750;5.888;2022-11-23T00:08:49;99276.81;;;8.85;100.00
32320;BME280;19080;51.750;5.888;2022-11-23T00:11:18;99365.72;;;9.39;100.00
32320;BME280;19080;51.750;5.888;2022-11-23T00:13:45;99359.53;;;9.42;100.00
32320;BME280;19080;51.750;5.888;2022-11-23T00:16:23;99378.06;;;9.45;100.00
32320;BME280;19080;51.750;5.888;2022-11-23T00:18:55;99364.84;;;9.39;100.00
32320;BME280;19080;51.750;5.888;2022-11-23T00:21:23;99361.31;;;9.40;100.00
32320;BME280;19080;51.750;5.888;2022-11-23T00:23:50;99262.69;;;8.86;100.00
32320;BME280;19080;51.750;5.888;2022-11-23T00:26:17;99291.72;;;9.04;100.00
32320;BME280;19080;51.750;5.888;2022-11-23T00:28:45;99343.66;;;9.39;100.00
32320;BME280;19080;51.750;5.888;2022-11-23T00:31:15;99307.56;;;9.21;100.00
32320;BME280;19080;51.750;5.888;2022-11-23T00:33:42;99363.91;;;9.55;100.00
32320;BME280;19080;51.750;5.888;2022-11-23T00:36:15;99313.72;;;9.22;100.00
32320;BME280;19080;51.750;5.888;2022-11-23T00:38:42;99321.66;;;9.28;100.00
32320;BME280;19080;51.750;5.888;2022-11-23T00:41:19;99355.09;;;9.52;100.00
32320;BME280;19080;51.750;5.888;2022-11-23T00:43:46;99366.50;;;9.61;100.00
32320;BME280;19080;51.750;5.888;2022-11-23T00:46:20;99278.47;;;9.10;100.00
32320;BME280;19080;51.750;5.888;2022-11-23T00:48:48;99382.38;;;9.67;100.00
32320;BME280;19080;51.750;5.888;2022-11-23T00:51:21;99314.56;;;9.31;100.00
32320;BME280;19080;51.750;5.888;2022-11-23T00:53:50;99374.44;;;9.64;100.00
32320;BME280;19080;51.750;5.888;2022-11-23T00:56:17;99320.75;;;9.32;100.00
32320;BME280;19080;51.750;5.888;2022-11-23T00:58:48;99309.31;;;9.25;100.00
32320;BME280;19080;51.750;5.888;2022-11-23T01:01:17;99333.97;;;9.38;100.00
32320;BME280;19080;51.750;5.888;2022-11-23T01:03:48;99367.41;;;9.57;100.00
32320;BME280;19080;51.750;5.888;2022-11-23T01:06:18;99340.09;;;9.46;100.00
32320;BME280;19080;51.750;5.888;2022-11-23T01:08:49;99376.22;;;9.65;100.00
32320;BME280;19080;51.750;5.888;2022-11-23T01:11:17;99313.69;;;9.29;100.00
32320;BME280;19080;51.750;5.888;2022-11-23T01:13:44;99321.63;;;9.32;100.00
32320;BME280;19080;51.750;5.888;2022-11-23T01:16:17;99336.59;;;9.41;100.00
32320;BME280;19080;51.750;5.888;2022-11-23T01:18:57;99378.00;;;9.60;100.00
32320;BME280;19080;51.750;5.888;2022-11-23T01:21:26;99351.56;;;9.46;100.00
32320;BME280;19080;51.750;5.888;2022-11-23T01:23:53;99322.53;;;9.30;100.00
32320;BME280;19080;51.750;5.888;2022-11-23T01:26:20;99385.03;;;9.69;100.00
32320;BME280;19080;51.750;5.888;2022-11-23T01:28:47;99350.66;;;9.52;100.00
32320;BME280;19080;51.750;5.888;2022-11-23T01:31:16;99327.75;;;9.42;100.00
32320;BME280;19080;51.750;5.888;2022-11-23T01:33:44;99323.34;;;9.39;100.00
32320;BME280;19080;51.750;5.888;2022-11-23T01:36:12;99421.13;;;9.88;100.00
32320;BME280;19080;51.750;5.888;2022-11-23T01:38:41;99346.28;;;9.43;100.00
32320;BME280;19080;51.750;5.888;2022-11-23T01:41:12;99425.56;;;9.89;100.00
32320;BME280;19080;51.750;5.888;2022-11-23T01:43:39;99352.50;;;9.38;100.00
32320;BME280;19080;51.750;5.888;2022-11-23T01:46:07;99333.97;;;9.33;100.00
32320;BME280;19080;51.750;5.888;2022-11-23T01:49:02;99353.38;;;9.38;100.00
32320;BME280;19080;51.750;5.888;2022-11-23T01:51:33;99342.81;;;9.32;100.00
32320;BME280;19080;51.750;5.888;2022-11-23T01:54:05;99354.25;;;9.42;100.00
32320;BME280;19080;51.750;5.888;2022-11-23T01:56:38;99357.78;;;9.41;100.00
32320;BME280;19080;51.750;5.888;2022-11-23T01:59:10;99329.56;;;9.31;100.00
32320;BME280;19080;51.750;5.888;2022-11-23T02:01:37;99333.97;;;9.32;100.00
32320;BME280;19080;51.750;5.888;2022-11-23T02:04:06;99446.75;;;9.92;100.00
32320;BME280;19080;51.750;5.888;2022-11-23T02:06:34;99330.50;;;9.19;100.00
32320;BME280;19080;51.750;5.888;2022-11-23T02:09:02;99449.44;;;9.82;100.00
32320;BME280;19080;51.750;5.888;2022-11-23T02:11:28;99356.06;;;9.23;100.00
32320;BME280;19080;51.750;5.888;2022-11-23T02:13:55;99377.19;;;9.40;100.00
32320;BME280;19080;51.750;5.888;2022-11-23T02:16:22;99374.56;;;9.37;100.00
32320;BME280;19080;51.750;5.888;2022-11-23T02:18:50;99390.41;;;9.44;100.00
32320;BME280;19080;51.750;5.888;2022-11-23T02:21:19;99372.78;;;9.36;100.00
32320;BME280;19080;51.750;5.888;2022-11-23T02:24:02;99455.59;;;9.84;100.00
32320;BME280;19080;51.750;5.888;2022-11-23T02:27:01;99459.16;;;9.81;100.00
32320;BME280;19080;51.750;5.888;2022-11-23T02:29:31;99453.88;;;9.76;100.00
32320;BME280;19080;51.750;5.888;2022-11-23T02:32:11;99451.22;;;9.78;100.00
32320;BME280;19080;51.750;5.888;2022-11-23T02:35:16;99458.28;;;9.77;100.00
32320;BME280;19080;51.750;5.888;2022-11-23T02:37:55;99450.38;;;9.68;100.00
32320;BME280;19080;51.750;5.888;2022-11-23T02:40:34;99423.94;;;9.50;100.00
32320;BME280;19080;51.750;5.888;2022-11-23T02:43:01;99433.63;;;9.60;100.00
32320;BME280;19080;51.750;5.888;2022-11-23T02:45:52;99461.84;;;9.70;100.00
32320;BME280;19080;51.750;5.888;2022-11-23T02:48:27;99416.00;;;9.45;100.00
32320;BME280;19080;51.750;5.888;2022-11-23T02:50:53;99369.34;;;9.11;100.00
32320;BME280;19080;51.750;5.888;2022-11-23T02:53:23;99382.56;;;9.12;100.00
32320;BME280;19080;51.750;5.888;2022-11-23T02:55:55;99401.09;;;9.20;100.00
32320;BME280;19080;51.750;5.888;2022-11-23T02:58:23;99361.44;;;8.90;100.00
32320;BME280;19080;51.750;5.888;2022-11-23T03:00:49;99360.56;;;8.95;100.00
32320;BME280;19080;51.750;5.888;2022-11-23T03:03:18;99392.28;;;9.10;100.00
32320;BME280;19080;51.750;5.888;2022-11-23T03:05:44;99395.78;;;9.23;100.00
32320;BME280;19080;51.750;5.888;2022-11-23T03:08:11;99370.22;;;9.14;100.00
32320;BME280;19080;51.750;5.888;2022-11-23T03:10:40;99365.81;;;9.12;100.00
32320;BME280;19080;51.750;5.888;2022-11-23T03:13:07;99445.09;;;9.59;100.00
32320;BME280;19080;51.750;5.888;2022-11-23T03:15:36;99440.69;;;9.61;100.00
32320;BME280;19080;51.750;5.888;2022-11-23T03:18:03;99345.53;;;9.09;100.00
32320;BME280;19080;51.750;5.888;2022-11-23T03:20:33;99390.44;;;9.38;100.00
32320;BME280;19080;51.750;5.888;2022-11-23T03:22:59;99349.91;;;9.18;100.00
32320;BME280;19080;51.750;5.888;2022-11-23T03:25:27;99452.06;;;9.85;100.00
32320;BME280;19080;51.750;5.888;2022-11-23T03:27:55;99415.97;;;9.56;100.00
32320;BME280;19080;51.750;5.888;2022-11-23T03:30:21;99426.53;;;9.65;100.00
32320;BME280;19080;51.750;5.888;2022-11-23T03:32:48;99455.63;;;9.79;100.00
32320;BME280;19080;51.750;5.888;2022-11-23T03:35:16;99425.63;;;9.69;100.00
32320;BME280;19080;51.750;5.888;2022-11-23T03:38:02;99386.88;;;9.45;100.00
32320;BME280;19080;51.750;5.888;2022-11-23T03:40:28;99437.09;;;9.77;100.00
32320;BME280;19080;51.750;5.888;2022-11-23T03:43:14;99401.88;;;9.48;100.00
32320;BME280;19080;51.750;5.888;2022-11-23T03:45:41;99389.53;;;9.44;100.00
32320;BME280;19080;51.750;5.888;2022-11-23T03:48:08;99357.81;;;9.29;100.00
32320;BME280;19080;51.750;5.888;2022-11-23T03:50:35;99378.97;;;9.38;100.00
32320;BME280;19080;51.750;5.888;2022-11-23T03:53:02;99446.81;;;9.75;100.00
32320;BME280;19080;51.750;5.888;2022-11-23T03:55:30;99448.56;;;9.75;100.00
32320;BME280;19080;51.750;5.888;2022-11-23T03:57:57;99402.75;;;9.55;100.00
32320;BME280;19080;51.750;5.888;2022-11-23T04:00:30;99481.19;;;9.94;100.00
32320;BME280;19080;51.750;5.888;2022-11-23T04:02:58;99399.25;;;9.45;100.00
32320;BME280;19080;51.750;5.888;2022-11-23T04:05:43;99429.19;;;9.65;100.00
32320;BME280;19080;51.750;5.888;2022-11-23T04:08:35;99448.59;;;9.73;100.00
32320;BME280;19080;51.750;5.888;2022-11-23T04:11:08;99409.81;;;9.51;100.00
32320;BME280;19080;51.750;5.888;2022-11-23T04:13:37;99391.31;;;9.37;100.00
32320;BME280;19080;51.750;5.888;2022-11-23T04:16:04;99507.69;;;9.97;100.00
32320;BME280;19080;51.750;5.888;2022-11-23T04:18:32;99412.50;;;9.45;100.00
32320;BME280;19080;51.750;5.888;2022-11-23T04:21:00;99414.22;;;9.51;100.00
32320;BME280;19080;51.750;5.888;2022-11-23T04:23:28;99412.47;;;9.51;100.00
32320;BME280;19080;51.750;5.888;2022-11-23T04:25:54;99441.53;;;9.68;100.00
32320;BME280;19080;51.750;5.888;2022-11-23T04:28:22;99453.03;;;9.68;100.00
32320;BME280;19080;51.750;5.888;2022-11-23T04:30:50;99446.81;;;9.71;100.00
32320;BME280;19080;51.750;5.888;2022-11-23T04:33:18;99408.94;;;9.49;100.00
32320;BME280;19080;51.750;5.888;2022-11-23T04:35:45;99444.19;;;9.66;100.00
32320;BME280;19080;51.750;5.888;2022-11-23T04:38:12;99416.88;;;9.55;100.00
32320;BME280;19080;51.750;5.888;2022-11-23T04:40:41;99408.06;;;9.49;100.00
32320;BME280;19080;51.750;5.888;2022-11-23T04:43:07;99376.34;;;9.32;100.00
32320;BME280;19080;51.750;5.888;2022-11-23T04:45:39;99450.38;;;9.62;100.00
32320;BME280;19080;51.750;5.888;2022-11-23T04:48:13;99420.44;;;9.43;100.00
32320;BME280;19080;51.750;5.888;2022-11-23T04:50:41;99394.91;;;9.26;100.00
32320;BME280;19080;51.750;5.888;2022-11-23T04:53:15;99416.91;;;9.44;100.00
32320;BME280;19080;51.750;5.888;2022-11-23T04:55:46;99483.88;;;9.86;100.00
32320;BME280;19080;51.750;5.888;2022-11-23T04:58:16;99447.75;;;9.62;100.00
32320;BME280;19080;51.750;5.888;2022-11-23T05:00:44;99436.28;;;9.53;100.00
32320;BME280;19080;51.750;5.888;2022-11-23T05:03:12;99420.44;;;9.42;100.00
32320;BME280;19080;51.750;5.888;2022-11-23T05:05:40;99476.81;;;9.81;100.00
32320;BME280;19080;51.750;5.888;2022-11-23T05:08:08;99453.91;;;9.70;100.00
32320;BME280;19080;51.750;5.888;2022-11-23T05:10:45;99392.22;;;9.35;100.00
32320;BME280;19080;51.750;5.888;2022-11-23T05:13:12;99431.88;;;9.53;100.00
32320;BME280;19080;51.750;5.888;2022-11-23T05:15:38;99454.78;;;9.69;100.00
32320;BME280;19080;51.750;5.888;2022-11-23T05:18:06;99401.94;;;9.33;100.00
32320;BME280;19080;51.750;5.888;2022-11-23T05:20:34;99365.81;;;9.13;100.00
32320;BME280;19080;51.750;5.888;2022-11-23T05:23:01;99362.28;;;9.08;100.00
32320;BME280;19080;51.750;5.888;2022-11-23T05:25:29;99416.06;;;9.32;100.00
32320;BME280;19080;51.750;5.888;2022-11-23T05:28:00;99403.72;;;9.28;100.00
32320;BME280;19080;51.750;5.888;2022-11-23T05:30:48;99433.69;;;9.42;100.00
32320;BME280;19080;51.750;5.888;2022-11-23T05:33:14;99431.91;;;9.41;100.00
32320;BME280;19080;51.750;5.888;2022-11-23T05:35:42;99487.44;;;9.73;100.00
32320;BME280;19080;51.750;5.888;2022-11-23T05:38:09;99400.19;;;9.20;100.00
32320;BME280;19080;51.750;5.888;2022-11-23T05:40:36;99444.25;;;9.45;100.00
32320;BME280;19080;51.750;5.888;2022-11-23T05:43:03;99441.63;;;9.42;100.00
32320;BME280;19080;51.750;5.888;2022-11-23T05:45:30;99382.59;;;9.09;100.00
32320;BME280;19080;51.750;5.888;2022-11-23T05:47:58;99398.44;;;9.19;100.00
32320;BME280;19080;51.750;5.888;2022-11-23T05:50:44;99415.19;;;9.27;100.00
32320;BME280;19080;51.750;5.888;2022-11-23T05:53:31;99376.44;;;9.01;100.00
32320;BME280;19080;51.750;5.888;2022-11-23T05:56:06;99463.66;;;9.56;100.00
32320;BME280;19080;51.750;5.888;2022-11-23T05:58:39;99400.22;;;9.17;100.00
32320;BME280;19080;51.750;5.888;2022-11-23T06:01:06;99426.66;;;9.29;100.00
32320;BME280;19080;51.750;5.888;2022-11-23T06:03:35;99469.81;;;9.58;100.00
32320;BME280;19080;51.750;5.888;2022-11-23T06:06:01;99444.25;;;9.45;100.00
32320;BME280;19080;51.750;5.888;2022-11-23T06:08:35;99461.00;;;9.56;100.00
32320;BME280;19080;51.750;5.888;2022-11-23T06:11:04;99397.53;;;9.23;100.00
32320;BME280;19080;51.750;5.888;2022-11-23T06:13:31;99476.00;;;9.60;100.00
32320;BME280;19080;51.750;5.888;2022-11-23T06:15:59;99407.25;;;9.21;100.00
32320;BME280;19080;51.750;5.888;2022-11-23T06:18:34;99404.63;;;9.14;100.00
32320;BME280;19080;51.750;5.888;2022-11-23T06:21:01;99454.88;;;9.42;100.00
32320;BME280;19080;51.750;5.888;2022-11-23T06:23:27;99400.25;;;9.04;100.00
32320;BME280;19080;51.750;5.888;2022-11-23T06:26:00;99431.09;;;9.22;100.00
32320;BME280;19080;51.750;5.888;2022-11-23T06:28:30;99417.88;;;9.11;100.00
32320;BME280;19080;51.750;5.888;2022-11-23T06:31:01;99410.81;;;9.04;100.00
32320;BME280;19080;51.750;5.888;2022-11-23T06:33:30;99401.13;;;8.97;100.00
32320;BME280;19080;51.750;5.888;2022-11-23T06:35:58;99512.22;;;9.55;100.00
32320;BME280;19080;51.750;5.888;2022-11-23T06:38:32;99378.22;;;8.81;100.00
32320;BME280;19080;51.750;5.888;2022-11-23T06:41:08;99516.63;;;9.50;100.00
32320;BME280;19080;51.750;5.888;2022-11-23T06:43:34;99462.84;;;9.16;100.00
32320;BME280;19080;51.750;5.888;2022-11-23T06:46:05;99483.13;;;9.28;100.00
32320;BME280;19080;51.750;5.888;2022-11-23T06:48:36;99428.47;;;8.99;100.00
32320;BME280;19080;51.750;5.888;2022-11-23T06:51:04;99402.91;;;8.81;100.00
32320;BME280;19080;51.750;5.888;2022-11-23T06:53:32;99430.25;;;8.90;100.00
32320;BME280;19080;51.750;5.888;2022-11-23T06:56:03;99512.25;;;9.37;100.00
32320;BME280;19080;51.750;5.888;2022-11-23T06:58:31;99425.84;;;8.87;100.00
32320;BME280;19080;51.750;5.888;2022-11-23T07:01:07;99536.06;;;9.49;100.00
32320;BME280;19080;51.750;5.888;2022-11-23T07:03:40;99530.78;;;9.46;100.00
32320;BME280;19080;51.750;5.888;2022-11-23T07:06:19;99447.88;;;8.94;100.00
32320;BME280;19080;51.750;5.888;2022-11-23T07:08:46;99455.81;;;8.98;100.00
32320;BME280;19080;51.750;5.888;2022-11-23T07:11:26;99432.91;;;8.84;100.00
32320;BME280;19080;51.750;5.888;2022-11-23T07:13:52;99479.63;;;9.03;100.00
32320;BME280;19080;51.750;5.888;2022-11-23T07:16:20;99469.06;;;8.95;100.00
32320;BME280;19080;51.750;5.888;2022-11-23T07:18:50;99543.13;;;9.41;100.00
32320;BME280;19080;51.750;5.888;2022-11-23T07:21:16;99470.81;;;8.90;100.00
32320;BME280;19080;51.750;5.888;2022-11-23T07:23:44;99522.84;;;9.16;100.00
32320;BME280;19080;51.750;5.888;2022-11-23T07:26:11;99442.59;;;8.71;100.00
32320;BME280;19080;51.750;5.888;2022-11-23T07:28:38;99552.84;;;9.28;100.00
32320;BME280;19080;51.750;5.888;2022-11-23T07:31:04;99507.84;;;9.02;100.00
32320;BME280;19080;51.750;5.888;2022-11-23T07:33:31;99507.84;;;8.96;100.00
32320;BME280;19080;51.750;5.888;2022-11-23T07:36:01;99496.41;;;8.94;100.00
32320;BME280;19080;51.750;5.888;2022-11-23T07:38:29;99569.63;;;9.38;100.00
32320;BME280;19080;51.750;5.888;2022-11-23T07:40:58;99490.22;;;8.89;100.00
32320;BME280;19080;51.750;5.888;2022-11-23T07:43:45;99477.00;;;8.83;100.00
32320;BME280;19080;51.750;5.888;2022-11-23T07:46:12;99442.59;;;8.68;100.00
32320;BME280;19080;51.750;5.888;2022-11-23T07:48:39;99521.97;;;9.20;100.00
32320;BME280;19080;51.750;5.888;2022-11-23T07:51:05;99502.56;;;9.08;100.00
32320;BME280;19080;51.750;5.888;2022-11-23T07:53:32;99584.63;;;9.56;100.00
32320;BME280;19080;51.750;5.888;2022-11-23T07:55:58;99555.50;;;9.36;100.00
32320;BME280;19080;51.750;5.888;2022-11-23T07:58:25;99594.31;;;9.54;100.00
32320;BME280;19080;51.750;5.888;2022-11-23T08:00:52;99581.97;;;9.30;100.00
32320;BME280;19080;51.750;5.888;2022-11-23T08:03:19;99592.56;;;9.33;100.00
32320;BME280;19080;51.750;5.888;2022-11-23T08:05:54;99600.50;;;9.31;100.00
32320;BME280;19080;51.750;5.888;2022-11-23T08:08:21;99599.63;;;9.28;100.00
32320;BME280;19080;51.750;5.888;2022-11-23T08:10:48;99499.03;;;8.82;100.00
32320;BME280;19080;51.750;5.888;2022-11-23T08:13:20;99512.28;;;8.99;100.00
32320;BME280;19080;51.750;5.888;2022-11-23T08:15:47;99452.28;;;8.79;100.00
32320;BME280;19080;51.750;5.888;2022-11-23T08:18:22;99552.84;;;9.54;100.00
32320;BME280;19080;51.750;5.888;2022-11-23T08:20:49;99496.38;;;9.19;100.00
32320;BME280;19080;51.750;5.888;2022-11-23T08:23:16;99601.34;;;9.84;100.00
32320;BME280;19080;51.750;5.888;2022-11-23T08:25:43;99512.25;;;9.26;100.00
32320;BME280;19080;51.750;5.888;2022-11-23T08:28:10;99465.50;;;9.14;100.00
32320;BME280;19080;51.750;5.888;2022-11-23T08:30:37;99528.97;;;9.65;100.00
32320;BME280;19080;51.750;5.888;2022-11-23T08:33:05;99533.34;;;9.78;100.00
32320;BME280;19080;51.750;5.888;2022-11-23T08:35:33;99574.78;;;10.23;100.00
32320;BME280;19080;51.750;5.888;2022-11-23T08:38:01;99554.41;;;10.33;100.00
32320;BME280;19080;51.750;5.888;2022-11-23T08:40:28;99517.31;;;10.24;100.00
32320;BME280;19080;51.750;5.888;2022-11-23T08:42:55;99513.75;;;10.31;100.00
32320;BME280;19080;51.750;5.888;2022-11-23T08:45:22;99577.19;;;10.64;100.00
32320;BME280;19080;51.750;5.888;2022-11-23T08:47:48;99509.34;;;10.19;100.00
32320;BME280;19080;51.750;5.888;2022-11-23T08:50:16;99593.13;;;10.63;100.00
32320;BME280;19080;51.750;5.888;2022-11-23T08:52:43;99536.69;;;10.39;100.00
32320;BME280;19080;51.750;5.888;2022-11-23T08:55:10;99531.25;;;10.56;100.00
32320;BME280;19080;51.750;5.888;2022-11-23T08:57:37;99438.56;;;10.39;100.00
32320;BME280;19080;51.750;5.888;2022-11-23T09:00:04;99536.91;;;11.30;100.00
32320;BME280;19080;51.750;5.888;2022-11-23T09:02:31;99531.63;;;11.27;100.00
32320;BME280;19080;51.750;5.888;2022-11-23T09:04:58;99519.41;;;11.07;100.00
32320;BME280;19080;51.750;5.888;2022-11-23T09:07:25;99538.19;;;10.80;100.00
32320;BME280;19080;51.750;5.888;2022-11-23T09:09:52;99531.25;;;10.59;100.00
32320;BME280;19080;51.750;5.888;2022-11-23T09:12:18;99573.72;;;10.55;100.00
32320;BME280;19080;51.750;5.888;2022-11-23T09:14:45;99593.16;;;10.60;100.00
32320;BME280;19080;51.750;5.888;2022-11-23T09:17:11;99542.97;;;10.11;100.00
32320;BME280;19080;51.750;5.888;2022-11-23T09:19:38;99551.78;;;10.19;100.00
32320;BME280;19080;51.750;5.888;2022-11-23T09:22:04;99565.03;;;10.18;100.00
32320;BME280;19080;51.750;5.888;2022-11-23T09:24:31;99512.13;;;9.84;100.00
32320;BME280;19080;51.750;5.888;2022-11-23T09:26:58;99595.94;;;10.32;100.00
32320;BME280;19080;51.750;5.888;2022-11-23T09:29:25;99490.09;;;9.71;100.00
32320;BME280;19080;51.750;5.888;2022-11-23T09:31:51;99549.19;;;10.05;100.00
32320;BME280;19080;51.750;5.888;2022-11-23T09:34:18;99521.84;;;9.87;100.00
32320;BME280;19080;51.750;5.888;2022-11-23T09:36:45;99568.59;;;10.20;100.00
32320;BME280;19080;51.750;5.888;2022-11-23T09:39:13;99512.13;;;9.89;100.00
32320;BME280;19080;51.750;5.888;2022-11-23T09:44:21;99586.25;;;10.22;100.00
32320;BME280;19080;51.750;5.888;2022-11-23T09:47:08;99609.19;;;10.40;100.00
32320;BME280;19080;51.750;5.888;2022-11-23T09:52:25;99558.69;;;10.54;100.00
32320;BME280;19080;51.750;5.888;2022-11-23T09:54:55;99485.53;;;10.10;100.00
32320;BME280;19080;51.750;5.888;2022-11-23T09:57:28;99500.53;;;10.17;100.00
32320;BME280;19080;51.750;5.888;2022-11-23T10:00:04;99596.59;;;10.75;100.00
32320;BME280;19080;51.750;5.888;2022-11-23T10:02:34;99599.22;;;10.83;100.00
32320;BME280;19080;51.750;5.888;2022-11-23T10:05:03;99481.69;;;10.63;100.00
32320;BME280;19080;51.750;5.888;2022-11-23T10:07:54;99498.91;;;11.23;100.00
32320;BME280;19080;51.750;5.888;2022-11-23T10:10:43;99559.84;;;12.90;100.00
32320;BME280;19080;51.750;5.888;2022-11-23T10:15:52;99491.88;;;14.56;100.00
32320;BME280;19080;51.750;5.888;2022-11-23T10:18:53;99565.03;;;15.61;100.00
32320;BME280;19080;51.750;5.888;2022-11-23T10:21:30;99493.41;;;15.73;96.26
32320;BME280;19080;51.750;5.888;2022-11-23T10:24:12;99458.31;;;16.14;86.09
32320;BME280;19080;51.750;5.888;2022-11-23T10:26:48;99493.38;;;16.66;84.02
32320;BME280;19080;51.750;5.888;2022-11-23T10:29:29;99465.63;;;16.68;78.37
32320;BME280;19080;51.750;5.888;2022-11-23T10:31:57;99473.97;;;17.13;74.88
32320;BME280;19080;51.750;5.888;2022-11-23T10:37:12;99524.25;;;17.58;72.11
32320;BME280;19080;51.750;5.888;2022-11-23T10:39:39;99440.94;;;17.63;70.06
32320;BME280;19080;51.750;5.888;2022-11-23T10:42:27;99523.03;;;18.66;65.61
32320;BME280;19080;51.750;5.888;2022-11-23T10:44:56;99456.72;;;18.43;63.81
32320;BME280;19080;51.750;5.888;2022-11-23T10:47:34;99506.66;;;18.72;63.55
32320;BME280;19080;51.750;5.888;2022-11-23T10:50:01;99437.97;;;18.42;61.58
32320;BME280;19080;51.750;5.888;2022-11-23T10:52:30;99500.03;;;18.58;61.57
32320;BME280;19080;51.750;5.888;2022-11-23T10:54:59;99379.72;;;18.20;60.98
32320;BME280;19080;51.750;5.888;2022-11-23T10:59:59;99428.72;;;18.72;56.87
32320;BME280;19080;51.750;5.888;2022-11-23T11:02:27;99497.41;;;19.23;58.48
32320;BME280;19080;51.750;5.888;2022-11-23T11:05:24;99495.44;;;20.09;55.12
32320;BME280;19080;51.750;5.888;2022-11-23T11:08:16;99421.16;;;19.44;54.32
32320;BME280;19080;51.750;5.888;2022-11-23T11:11:03;99488.13;;;19.93;54.29
32320;BME280;19080;51.750;5.888;2022-11-23T11:13:39;99430.16;;;20.23;54.07
32320;BME280;19080;51.750;5.888;2022-11-23T11:16:28;99419.16;;;20.28;51.32
32320;BME280;19080;51.750;5.888;2022-11-23T11:18:59;99356.28;;;19.50;51.02
32320;BME280;19080;51.750;5.888;2022-11-23T11:21:33;99389.44;;;20.10;50.54
32320;BME280;19080;51.750;5.888;2022-11-23T11:24:05;99477.44;;;20.87;50.72
32320;BME280;19080;51.750;5.888;2022-11-23T11:26:52;99471.94;;;20.52;48.21
32320;BME280;19080;51.750;5.888;2022-11-23T11:29:38;99410.19;;;19.69;49.64
32320;BME280;19080;51.750;5.888;2022-11-23T11:34:46;99481.81;;;20.33;48.80
32320;BME280;19080;51.750;5.888;2022-11-23T11:39:54;99422.66;;;20.30;48.87
32320;BME280;19080;51.750;5.888;2022-11-23T11:42:32;99412.97;;;20.26;49.27
32320;BME280;19080;51.750;5.888;2022-11-23T11:45:02;99478.50;;;20.46;48.67
32320;BME280;19080;51.750;5.888;2022-11-23T11:47:36;99425.84;;;18.32;52.19
32320;BME280;19080;51.750;5.888;2022-11-23T11:52:46;99375.88;;;16.53;58.47
32320;BME280;19080;51.750;5.888;2022-11-23T11:55:34;99397.75;;;16.10;62.84
32320;BME280;19080;51.750;5.888;2022-11-23T11:58:11;99427.34;;;15.10;74.08
32320;BME280;19080;51.750;5.888;2022-11-23T12:00:40;99381.16;;;13.93;87.48
32320;BME280;19080;51.750;5.888;2022-11-23T12:03:22;99426.56;;;13.49;98.65
32320;BME280;19080;51.750;5.888;2022-11-23T12:05:52;99364.69;;;12.82;100.00
32320;BME280;19080;51.750;5.888;2022-11-23T12:08:29;99459.97;;;13.19;100.00
32320;BME280;19080;51.750;5.888;2022-11-23T12:10:59;99372.56;;;12.90;100.00
32320;BME280;19080;51.750;5.888;2022-11-23T12:13:35;99440.97;;;13.39;100.00
32320;BME280;19080;51.750;5.888;2022-11-23T12:16:20;99367.63;;;13.18;100.00
32320;BME280;19080;51.750;5.888;2022-11-23T12:19:18;99443.81;;;13.74;100.00
32320;BME280;19080;51.750;5.888;2022-11-23T12:22:02;99345.81;;;12.96;100.00
32320;BME280;19080;51.750;5.888;2022-11-23T12:24:48;99436.69;;;13.30;100.00
32320;BME280;19080;51.750;5.888;2022-11-23T12:30:28;99428.00;;;13.19;100.00
32320;BME280;19080;51.750;5.888;2022-11-23T12:33:16;99336.59;;;12.66;100.00
32320;BME280;19080;51.750;5.888;2022-11-23T12:36:08;99413.13;;;13.53;100.00
32320;BME280;19080;51.750;5.888;2022-11-23T12:38:51;99399.63;;;14.41;100.00
32320;BME280;19080;51.750;5.888;2022-11-23T12:41:32;99413.28;;;15.36;91.25
32320;BME280;19080;51.750;5.888;2022-11-23T12:46:54;99399.31;;;15.58;82.16
32320;BME280;19080;51.750;5.888;2022-11-23T12:49:37;99400.75;;;16.57;75.10
32320;BME280;19080;51.750;5.888;2022-11-23T13:00:27;99304.59;;;17.49;60.92
32320;BME280;19080;51.750;5.888;2022-11-23T13:05:44;99304.34;;;17.33;59.24
32320;BME280;19080;51.750;5.888;2022-11-23T13:16:41;99353.00;;;14.57;82.33
32320;BME280;19080;51.750;5.888;2022-11-23T13:19:33;99403.16;;;14.03;92.00
32320;BME280;19080;51.750;5.888;2022-11-23T13:22:04;99309.13;;;13.12;99.04
32320;BME280;19080;51.750;5.888;2022-11-23T13:24:59;99343.16;;;12.96;100.00
32320;BME280;19080;51.750;5.888;2022-11-23T13:29:57;99355.88;;;12.80;100.00
32320;BME280;19080;51.750;5.888;2022-11-23T13:40:20;99394.84;;;12.29;100.00
32320;BME280;19080;51.750;5.888;2022-11-23T13:42:50;99320.28;;;11.75;100.00
32320;BME280;19080;51.750;5.888;2022-11-23T13:50:59;99315.28;;;11.52;100.00
32320;BME280;19080;51.750;5.888;2022-11-23T13:55:56;99296.16;;;11.26;100.00
32320;BME280;19080;51.750;5.888;2022-11-23T14:00:57;99327.13;;;11.27;100.00
32320;BME280;19080;51.750;5.888;2022-11-23T14:03:45;99298.19;;;11.02;100.00
32320;BME280;19080;51.750;5.888;2022-11-23T14:06:44;99430.22;;;11.69;100.00
32320;BME280;19080;51.750;5.888;2022-11-23T14:11:52;99444.59;;;11.53;100.00
32320;BME280;19080;51.750;5.888;2022-11-23T14:14:24;99348.66;;;10.99;100.00
32320;BME280;19080;51.750;5.888;2022-11-23T14:17:03;99446.44;;;11.45;100.00
32320;BME280;19080;51.750;5.888;2022-11-23T14:19:44;99449.06;;;11.50;100.00
32320;BME280;19080;51.750;5.888;2022-11-23T14:22:40;99457.84;;;11.55;100.00
32320;BME280;19080;51.750;5.888;2022-11-23T14:28:19;99469.59;;;11.34;100.00
32320;BME280;19080;51.750;5.888;2022-11-23T14:31:00;99368.34;;;10.79;100.00
32320;BME280;19080;51.750;5.888;2022-11-23T14:33:40;99449.66;;;10.89;100.00
32320;BME280;19080;51.750;5.888;2022-11-23T14:39:39;99371.81;;;9.63;100.00